Time;durP1;ratioP1;P1;durP2;ratioP2;P2;SDS_P1;SDS_P2;PMS_P1;PMS_P2;Temp;Humidity;BMP_temperature;BMP_pressure;BME280_temperature;BME280_humidity;BME280_pressure;Samples;Min_cycle;Max_cycle;Signal;HPM_P1;HPM_P2
2023/09/17 00:00:11;;;;;;;24.63;20.98;;;13.40;99.90;;;;;;5064940;28;20040;-83
2023/09/17 00:02:37;;;;;;;18.88;16.67;;;13.40;99.90;;;;;;5058521;28;20041;-83
2023/09/17 00:05:03;;;;;;;17.40;14.93;;;13.40;99.90;;;;;;5073065;28;20040;-83
2023/09/17 00:07:29;;;;;;;22.98;20.58;;;13.30;99.90;;;;;;5062706;28;20044;-82
2023/09/17 00:09:55;;;;;;;19.58;16.40;;;13.20;99.90;;;;;;5059769;28;20043;-83
2023/09/17 00:12:21;;;;;;;21.50;19.15;;;13.20;99.90;;;;;;5073891;28;20036;-83
2023/09/17 00:14:47;;;;;;;24.05;21.33;;;13.20;99.90;;;;;;5056799;28;20116;-83
2023/09/17 00:17:13;;;;;;;24.77;20.95;;;13.20;99.90;;;;;;5064269;28;20041;-83
2023/09/17 00:19:38;;;;;;;25.75;22.95;;;13.20;99.90;;;;;;5053979;28;20024;-82
2023/09/17 00:22:06;;;;;;;23.67;21.15;;;13.10;99.90;;;;;;5056215;28;20555;-82
2023/09/17 00:24:33;;;;;;;27.95;24.25;;;13.20;99.90;;;;;;5063816;28;20218;-83
2023/09/17 00:27:04;;;;;;;27.58;23.63;;;13.20;99.90;;;;;;5060866;28;20466;-82
2023/09/17 00:29:30;;;;;;;22.85;20.33;;;13.20;99.90;;;;;;5062849;28;20476;-82
2023/09/17 00:31:56;;;;;;;23.33;20.83;;;13.10;99.90;;;;;;5068930;28;20032;-82
2023/09/17 00:34:21;;;;;;;25.63;22.67;;;13.10;99.90;;;;;;5056675;28;20041;-82
2023/09/17 00:36:47;;;;;;;26.63;21.67;;;13.10;99.90;;;;;;5078156;28;20028;-82
2023/09/17 00:39:13;;;;;;;25.05;21.83;;;13.10;99.90;;;;;;5071244;28;20047;-82
2023/09/17 00:41:38;;;;;;;24.42;20.75;;;13.10;99.90;;;;;;5087988;28;20131;-82
2023/09/17 00:44:04;;;;;;;25.83;21.98;;;13.00;99.90;;;;;;5063744;28;20060;-82
2023/09/17 00:46:33;;;;;;;21.15;18.90;;;13.00;99.90;;;;;;5075911;28;20082;-82
2023/09/17 00:49:00;;;;;;;21.10;18.45;;;13.00;99.90;;;;;;5050120;28;20114;-82
2023/09/17 00:51:26;;;;;;;24.48;21.70;;;12.90;99.90;;;;;;5062696;28;20093;-82
2023/09/17 00:53:56;;;;;;;29.67;24.13;;;13.00;99.90;;;;;;5060379;28;20028;-82
2023/09/17 00:56:23;;;;;;;25.95;23.15;;;13.00;99.90;;;;;;5072649;28;20033;-82
2023/09/17 00:58:50;;;;;;;27.60;22.52;;;12.90;99.90;;;;;;5056346;28;20370;-82
2023/09/17 01:01:16;;;;;;;23.60;20.48;;;12.80;99.90;;;;;;5074936;28;20635;-82
2023/09/17 01:03:42;;;;;;;29.67;25.65;;;12.90;99.90;;;;;;5054161;28;20041;-82
2023/09/17 01:06:11;;;;;;;30.65;25.42;;;13.00;99.90;;;;;;5061994;28;20040;-82
2023/09/17 01:08:39;;;;;;;30.83;25.52;;;13.10;99.90;;;;;;5059635;28;20118;-82
2023/09/17 01:11:07;;;;;;;30.27;24.95;;;13.10;99.90;;;;;;5061292;28;20128;-82
2023/09/17 01:13:39;;;;;;;30.27;24.58;;;13.10;99.90;;;;;;5061293;28;20065;-82
2023/09/17 01:16:05;;;;;;;20.73;17.10;;;13.10;99.90;;;;;;5076770;28;20055;-82
2023/09/17 01:18:32;;;;;;;29.75;23.98;;;12.90;99.90;;;;;;5060668;28;20066;-82
2023/09/17 01:21:16;;;;;;;26.95;22.27;;;13.00;99.90;;;;;;5072263;28;20072;-82
2023/09/17 01:23:50;;;;;;;26.70;22.55;;;13.00;99.90;;;;;;5068958;28;20079;-82
2023/09/17 01:26:26;;;;;;;25.10;20.73;;;13.10;99.90;;;;;;5055387;28;20549;-82
2023/09/17 01:28:54;;;;;;;28.40;23.58;;;13.10;99.90;;;;;;5059995;28;20121;-82
2023/09/17 01:31:21;;;;;;;29.13;24.38;;;13.20;99.90;;;;;;5078750;28;20040;-82
2023/09/17 01:33:48;;;;;;;36.97;27.85;;;13.20;99.90;;;;;;5059951;28;20038;-82
2023/09/17 01:36:21;;;;;;;34.42;27.65;;;13.20;99.90;;;;;;5072400;28;20036;-82
2023/09/17 01:38:52;;;;;;;36.75;28.52;;;13.20;99.90;;;;;;5074861;28;20051;-82
2023/09/17 01:41:18;;;;;;;26.75;21.75;;;13.30;99.90;;;;;;5068822;28;20040;-82
2023/09/17 01:43:45;;;;;;;30.95;25.48;;;13.10;99.90;;;;;;5069742;28;20139;-82
2023/09/17 01:46:11;;;;;;;36.22;27.10;;;13.10;99.90;;;;;;5070836;28;20041;-81
2023/09/17 01:48:38;;;;;;;28.60;24.33;;;13.10;99.90;;;;;;5056348;28;20400;-82
2023/09/17 01:51:05;;;;;;;30.50;25.17;;;13.00;99.90;;;;;;5063346;28;20036;-82
2023/09/17 01:53:32;;;;;;;29.77;25.15;;;13.10;99.90;;;;;;5071753;28;20484;-82
2023/09/17 01:55:59;;;;;;;32.53;26.83;;;13.10;99.90;;;;;;5058890;28;20097;-82
2023/09/17 01:58:25;;;;;;;34.75;28.00;;;13.10;99.90;;;;;;5069733;28;20052;-82
2023/09/17 02:00:52;;;;;;;34.38;26.95;;;13.10;99.90;;;;;;5055452;28;20048;-82
2023/09/17 02:03:18;;;;;;;31.88;25.27;;;13.10;99.90;;;;;;5058450;28;20043;-82
2023/09/17 02:05:44;;;;;;;30.23;24.27;;;13.00;99.90;;;;;;5070001;28;20320;-82
2023/09/17 02:08:10;;;;;;;19.40;17.30;;;13.00;99.90;;;;;;5061590;28;20481;-82
2023/09/17 02:10:35;;;;;;;27.10;21.30;;;13.00;99.90;;;;;;5061108;28;20076;-82
2023/09/17 02:13:01;;;;;;;30.23;24.85;;;12.90;99.90;;;;;;5060889;28;20032;-82
2023/09/17 02:15:27;;;;;;;36.42;28.95;;;13.00;99.90;;;;;;5056248;28;20068;-82
2023/09/17 02:17:52;;;;;;;36.35;29.70;;;13.10;99.90;;;;;;5056709;28;20032;-82
2023/09/17 02:20:18;;;;;;;36.17;28.45;;;13.20;99.90;;;;;;5069705;28;20495;-82
2023/09/17 02:22:45;;;;;;;40.08;30.25;;;13.20;99.90;;;;;;5071615;28;20051;-82
2023/09/17 02:25:11;;;;;;;35.75;28.10;;;13.30;99.90;;;;;;5070994;28;20519;-82
2023/09/17 02:27:38;;;;;;;27.10;22.55;;;13.40;99.90;;;;;;5067615;28;20047;-82
2023/09/17 02:30:05;;;;;;;19.92;17.65;;;13.30;99.90;;;;;;5060508;28;20553;-82
2023/09/17 02:32:31;;;;;;;30.20;24.67;;;13.30;99.90;;;;;;5073356;28;20524;-82
2023/09/17 02:34:57;;;;;;;23.08;19.25;;;13.40;99.90;;;;;;5067687;28;20074;-81
2023/09/17 02:37:23;;;;;;;28.00;21.77;;;13.30;99.90;;;;;;5061403;28;20378;-82
2023/09/17 02:39:49;;;;;;;30.50;24.58;;;13.20;99.90;;;;;;5056806;28;20029;-82
2023/09/17 02:42:15;;;;;;;28.20;22.15;;;13.40;99.90;;;;;;5056086;28;20092;-82
2023/09/17 02:44:42;;;;;;;39.28;30.23;;;13.40;99.90;;;;;;5051760;28;20131;-82
2023/09/17 02:47:08;;;;;;;34.47;27.45;;;13.50;99.90;;;;;;5065721;28;20043;-82
2023/09/17 02:49:33;;;;;;;29.85;25.00;;;13.60;99.90;;;;;;5061899;28;20409;-82
2023/09/17 02:51:59;;;;;;;34.50;26.63;;;13.60;99.90;;;;;;5072462;28;20068;-82
2023/09/17 02:54:24;;;;;;;27.52;22.58;;;13.70;99.90;;;;;;5054250;28;20032;-82
2023/09/17 02:56:50;;;;;;;26.17;19.90;;;13.70;99.90;;;;;;5072483;28;20133;-82
2023/09/17 02:59:16;;;;;;;25.20;21.52;;;13.70;99.90;;;;;;5070520;28;20485;-82
2023/09/17 03:01:41;;;;;;;25.02;20.50;;;13.70;99.90;;;;;;5058740;28;20036;-81
2023/09/17 03:04:07;;;;;;;27.70;22.40;;;13.70;99.90;;;;;;5067463;28;20367;-82
2023/09/17 03:06:36;;;;;;;28.65;22.00;;;13.80;99.90;;;;;;5070023;28;20075;-82
2023/09/17 03:09:07;;;;;;;28.92;23.05;;;13.90;99.90;;;;;;5062348;28;20146;-81
2023/09/17 03:11:33;;;;;;;31.70;25.80;;;13.90;99.90;;;;;;5063394;28;20074;-82
2023/09/17 03:13:58;;;;;;;31.40;25.23;;;14.00;99.90;;;;;;5057482;28;20353;-82
2023/09/17 03:16:24;;;;;;;35.78;27.73;;;14.00;99.90;;;;;;5059602;28;20083;-81
2023/09/17 03:18:50;;;;;;;37.30;27.40;;;14.00;99.90;;;;;;5057926;28;20036;-81
2023/09/17 03:21:16;;;;;;;36.63;28.05;;;14.10;99.90;;;;;;5069850;28;20046;-82
2023/09/17 03:23:42;;;;;;;37.40;30.02;;;14.20;99.90;;;;;;5061004;28;20075;-81
2023/09/17 03:26:09;;;;;;;32.83;26.55;;;14.10;99.90;;;;;;5058832;28;20076;-81
2023/09/17 03:28:35;;;;;;;39.35;29.33;;;14.20;99.90;;;;;;5061288;28;20106;-81
2023/09/17 03:31:01;;;;;;;37.47;29.63;;;14.30;99.90;;;;;;5049288;28;20024;-81
2023/09/17 03:33:27;;;;;;;39.55;29.00;;;14.30;99.90;;;;;;5070449;28;20477;-82
2023/09/17 03:35:55;;;;;;;36.85;29.08;;;14.30;99.90;;;;;;5059458;28;20259;-82
2023/09/17 03:38:20;;;;;;;42.85;31.13;;;14.40;99.90;;;;;;5060273;28;20080;-82
2023/09/17 03:40:46;;;;;;;37.90;29.10;;;14.40;99.90;;;;;;5058366;28;20082;-82
2023/09/17 03:43:12;;;;;;;39.55;30.00;;;14.50;99.90;;;;;;5060739;28;20052;-82
2023/09/17 03:45:38;;;;;;;39.65;30.73;;;14.50;99.90;;;;;;5095131;28;20072;-81
2023/09/17 03:48:04;;;;;;;39.63;31.30;;;14.60;99.90;;;;;;5083185;28;20469;-82
2023/09/17 03:50:33;;;;;;;41.30;31.60;;;14.60;99.90;;;;;;5096694;28;20058;-82
2023/09/17 03:53:02;;;;;;;43.75;32.92;;;14.60;99.90;;;;;;5080314;28;20087;-81
2023/09/17 03:55:28;;;;;;;44.45;34.28;;;14.70;99.90;;;;;;5080573;28;20036;-82
2023/09/17 03:57:56;;;;;;;41.55;30.67;;;14.70;99.90;;;;;;5086707;28;20085;-81
2023/09/17 04:00:23;;;;;;;41.50;31.38;;;14.60;99.90;;;;;;5096054;27;20085;-82
2023/09/17 04:02:49;;;;;;;38.60;30.58;;;14.70;99.90;;;;;;5080749;28;20589;-82
2023/09/17 04:05:16;;;;;;;42.00;32.60;;;14.70;99.90;;;;;;5074497;28;20139;-81
2023/09/17 04:07:44;;;;;;;36.38;28.13;;;14.80;99.90;;;;;;5075031;28;20350;-81
2023/09/17 04:10:10;;;;;;;40.25;30.60;;;14.80;99.90;;;;;;5082691;28;20056;-81
2023/09/17 04:12:37;;;;;;;40.95;31.90;;;14.80;99.90;;;;;;5084305;28;20036;-81
2023/09/17 04:15:08;;;;;;;41.55;31.52;;;14.80;99.90;;;;;;5083549;28;20044;-82
2023/09/17 04:17:33;;;;;;;41.08;32.90;;;14.80;99.90;;;;;;5083701;28;20446;-81
2023/09/17 04:19:59;;;;;;;40.95;30.80;;;14.90;99.90;;;;;;5088568;28;20036;-81
2023/09/17 04:22:24;;;;;;;41.20;32.22;;;14.80;99.90;;;;;;5071423;28;20085;-81
2023/09/17 04:24:50;;;;;;;43.72;31.65;;;14.90;99.90;;;;;;5076655;28;20044;-81
2023/09/17 04:27:16;;;;;;;42.30;32.25;;;14.90;99.90;;;;;;5082384;28;20048;-82
2023/09/17 04:29:42;;;;;;;42.58;31.85;;;14.90;99.90;;;;;;5094256;28;20035;-82
2023/09/17 04:32:07;;;;;;;44.75;32.22;;;15.00;99.90;;;;;;5071266;28;20131;-81
2023/09/17 04:34:33;;;;;;;43.33;32.15;;;15.00;99.90;;;;;;5074292;28;20135;-82
2023/09/17 04:36:59;;;;;;;41.30;31.52;;;15.00;99.90;;;;;;5082718;28;20115;-81
2023/09/17 04:39:25;;;;;;;41.72;30.88;;;15.10;99.90;;;;;;5075831;28;20526;-82
2023/09/17 04:41:51;;;;;;;43.08;30.42;;;15.10;99.90;;;;;;5080250;28;20033;-81
2023/09/17 04:44:17;;;;;;;40.42;31.73;;;15.10;99.90;;;;;;5074257;28;20070;-82
2023/09/17 04:46:45;;;;;;;44.97;31.42;;;15.10;99.90;;;;;;5062719;28;20048;-82
2023/09/17 04:49:11;;;;;;;41.90;31.25;;;15.00;99.90;;;;;;5057401;28;20492;-82
2023/09/17 04:51:37;;;;;;;39.85;29.95;;;15.10;99.90;;;;;;5071332;28;20579;-82
2023/09/17 04:54:04;;;;;;;41.45;31.60;;;15.00;99.90;;;;;;5062251;28;20032;-81
2023/09/17 04:56:30;;;;;;;41.55;31.17;;;15.10;99.90;;;;;;5057925;28;20123;-82
2023/09/17 04:58:59;;;;;;;43.47;31.33;;;15.00;99.90;;;;;;5075455;28;20032;-82
2023/09/17 05:01:26;;;;;;;46.85;31.65;;;15.10;99.90;;;;;;5062177;28;20058;-81
2023/09/17 05:03:52;;;;;;;43.83;32.13;;;15.10;99.90;;;;;;5071665;28;20044;-82
2023/09/17 05:06:18;;;;;;;46.83;31.33;;;15.10;99.90;;;;;;5057918;28;20388;-82
2023/09/17 05:08:44;;;;;;;43.72;32.45;;;15.10;99.90;;;;;;5072329;28;20114;-81
2023/09/17 05:11:09;;;;;;;43.65;31.42;;;15.10;99.90;;;;;;5071403;28;20043;-81
2023/09/17 05:13:35;;;;;;;43.78;32.75;;;15.10;99.90;;;;;;5055838;28;20429;-81
2023/09/17 05:16:02;;;;;;;47.15;33.15;;;15.00;99.90;;;;;;5074739;28;20123;-81
2023/09/17 05:18:27;;;;;;;45.13;32.45;;;15.10;99.90;;;;;;5055405;28;20077;-81
2023/09/17 05:20:54;;;;;;;35.97;27.27;;;15.10;99.90;;;;;;5056286;28;20044;-82
2023/09/17 05:23:23;;;;;;;38.33;28.55;;;15.00;99.90;;;;;;5057944;28;20043;-81
2023/09/17 05:25:49;;;;;;;38.85;28.20;;;14.90;99.90;;;;;;5056353;28;20040;-81
2023/09/17 05:28:15;;;;;;;45.60;30.58;;;15.00;99.90;;;;;;5074430;28;20040;-82
2023/09/17 05:30:41;;;;;;;42.67;30.77;;;15.10;99.90;;;;;;5058812;28;20036;-82
2023/09/17 05:33:07;;;;;;;44.35;30.33;;;15.10;99.90;;;;;;5077071;28;20123;-81
2023/09/17 05:35:34;;;;;;;49.78;32.40;;;15.20;99.90;;;;;;5069516;28;20036;-81
2023/09/17 05:38:00;;;;;;;44.55;32.10;;;15.30;99.90;;;;;;5056967;28;20044;-81
2023/09/17 05:40:26;;;;;;;49.20;32.67;;;15.30;99.90;;;;;;5060499;28;20093;-82
2023/09/17 05:42:52;;;;;;;47.33;33.90;;;15.30;99.90;;;;;;5062384;28;20311;-81
2023/09/17 05:45:18;;;;;;;50.70;33.72;;;15.40;99.90;;;;;;5072459;28;20465;-82
2023/09/17 05:47:44;;;;;;;46.10;32.22;;;15.40;99.90;;;;;;5076414;28;20279;-81
2023/09/17 05:50:10;;;;;;;43.20;32.60;;;15.50;99.90;;;;;;5056191;28;20143;-81
2023/09/17 05:52:37;;;;;;;49.35;31.25;;;15.50;99.90;;;;;;5051165;28;20123;-82
2023/09/17 05:55:04;;;;;;;46.28;32.35;;;15.60;99.90;;;;;;5071440;28;20072;-82
2023/09/17 05:57:33;;;;;;;42.03;30.92;;;15.60;99.90;;;;;;5053029;28;20044;-81
2023/09/17 05:59:59;;;;;;;45.45;32.30;;;15.60;99.90;;;;;;5070854;28;20455;-81
2023/09/17 06:02:25;;;;;;;44.03;30.67;;;15.70;99.90;;;;;;5056578;28;20032;-81
2023/09/17 06:04:53;;;;;;;43.80;29.67;;;15.80;99.90;;;;;;5060427;28;20024;-81
2023/09/17 06:07:22;;;;;;;44.72;31.55;;;15.80;99.90;;;;;;5069160;28;20047;-81
2023/09/17 06:09:48;;;;;;;40.50;30.60;;;15.80;99.90;;;;;;5057000;28;20502;-81
2023/09/17 06:12:15;;;;;;;48.70;31.75;;;15.90;99.90;;;;;;5057038;28;20032;-81
2023/09/17 06:14:41;;;;;;;43.20;30.77;;;15.90;99.90;;;;;;5058935;28;20159;-82
2023/09/17 06:17:07;;;;;;;43.35;30.85;;;16.00;99.90;;;;;;5074095;28;20036;-81
2023/09/17 06:19:33;;;;;;;45.28;33.00;;;16.00;99.90;;;;;;5051746;28;20484;-81
2023/09/17 06:21:59;;;;;;;43.85;31.33;;;16.10;99.90;;;;;;5060562;28;20044;-81
2023/09/17 06:24:25;;;;;;;46.05;31.83;;;16.20;99.90;;;;;;5061623;28;20214;-81
2023/09/17 06:26:51;;;;;;;40.58;31.38;;;16.20;99.90;;;;;;5053776;28;20041;-81
2023/09/17 06:29:17;;;;;;;44.42;31.02;;;16.30;99.90;;;;;;5059535;28;20048;-81
2023/09/17 06:31:44;;;;;;;40.60;30.98;;;16.40;99.90;;;;;;5061201;28;20055;-81
2023/09/17 06:34:10;;;;;;;45.22;31.00;;;16.40;99.90;;;;;;5055418;28;20222;-81
2023/09/17 06:36:36;;;;;;;42.42;29.77;;;16.50;99.90;;;;;;5056745;28;20055;-82
2023/09/17 06:39:06;;;;;;;44.05;30.40;;;16.50;99.90;;;;;;5068772;28;20280;-81
2023/09/17 06:41:32;;;;;;;41.17;30.20;;;16.50;99.90;;;;;;5058302;28;20039;-81
2023/09/17 06:43:58;;;;;;;42.40;29.75;;;16.70;99.90;;;;;;5062417;28;20532;-81
2023/09/17 06:46:25;;;;;;;39.47;29.40;;;16.60;99.90;;;;;;5078495;28;20044;-81
2023/09/17 06:48:51;;;;;;;41.90;30.33;;;16.80;99.90;;;;;;5094357;28;20066;-81
2023/09/17 06:51:17;;;;;;;38.35;28.75;;;16.80;99.90;;;;;;5083916;28;20131;-81
2023/09/17 06:53:43;;;;;;;38.88;29.70;;;16.90;99.90;;;;;;5074355;28;20035;-81
2023/09/17 06:56:12;;;;;;;41.20;28.75;;;17.00;99.90;;;;;;5080622;28;20539;-81
2023/09/17 06:58:37;;;;;;;39.53;28.90;;;17.10;99.90;;;;;;5076219;28;20065;-81
2023/09/17 07:01:04;;;;;;;36.47;27.73;;;17.20;99.90;;;;;;5079737;28;20052;-81
2023/09/17 07:03:30;;;;;;;35.08;28.17;;;17.10;99.90;;;;;;5071244;28;20067;-81
2023/09/17 07:05:55;;;;;;;35.08;26.88;;;17.20;99.90;;;;;;5077072;28;20082;-81
2023/09/17 07:08:21;;;;;;;34.45;27.67;;;17.40;99.90;;;;;;5058481;28;20109;-81
2023/09/17 07:10:47;;;;;;;34.90;27.27;;;17.50;99.90;;;;;;5091375;28;20086;-81
2023/09/17 07:13:13;;;;;;;36.95;28.48;;;17.70;99.90;;;;;;5099741;28;20512;-81
2023/09/17 07:15:39;;;;;;;34.90;28.05;;;17.60;99.90;;;;;;5085151;28;20082;-81
2023/09/17 07:18:07;;;;;;;35.50;26.45;;;17.80;99.90;;;;;;5085593;28;20071;-81
2023/09/17 07:20:34;;;;;;;34.15;26.30;;;17.90;99.90;;;;;;5083633;28;20039;-81
2023/09/17 07:22:59;;;;;;;33.10;26.42;;;18.10;99.90;;;;;;5097439;28;20309;-81
2023/09/17 07:25:25;;;;;;;31.58;25.35;;;18.20;99.90;;;;;;5081712;28;20229;-82
2023/09/17 07:27:51;;;;;;;31.65;26.05;;;18.40;99.90;;;;;;5077853;28;20449;-81
2023/09/17 07:30:17;;;;;;;30.02;25.02;;;18.60;99.90;;;;;;5077145;28;20097;-81
2023/09/17 07:32:43;;;;;;;28.88;24.42;;;18.60;99.90;;;;;;5080807;28;20423;-81
2023/09/17 07:35:08;;;;;;;31.00;23.40;;;18.60;99.90;;;;;;5093468;28;20108;-81
2023/09/17 07:37:34;;;;;;;29.85;23.05;;;18.70;99.90;;;;;;5081255;28;20127;-81
2023/09/17 07:40:02;;;;;;;26.65;22.13;;;18.60;99.90;;;;;;5097396;28;20032;-81
2023/09/17 07:42:27;;;;;;;27.77;22.20;;;18.60;99.90;;;;;;5079331;28;20028;-81
2023/09/17 07:44:53;;;;;;;26.08;20.85;;;18.50;99.90;;;;;;5079893;28;20113;-81
2023/09/17 07:47:19;;;;;;;23.38;20.45;;;18.60;99.90;;;;;;5077081;28;20032;-81
2023/09/17 07:49:45;;;;;;;24.40;21.02;;;18.50;99.90;;;;;;5061328;28;20032;-81
2023/09/17 07:52:18;;;;;;;24.60;20.17;;;18.40;99.90;;;;;;5074399;28;20040;-81
2023/09/17 07:54:43;;;;;;;24.23;20.10;;;18.40;99.90;;;;;;5073532;28;20123;-81
2023/09/17 07:57:11;;;;;;;27.70;22.15;;;18.40;99.90;;;;;;5068313;28;20123;-81
2023/09/17 07:59:37;;;;;;;26.33;21.25;;;18.40;99.90;;;;;;5057451;28;20138;-82
2023/09/17 08:02:03;;;;;;;27.52;20.42;;;18.30;99.90;;;;;;5059853;28;20126;-81
2023/09/17 08:04:29;;;;;;;23.80;20.92;;;18.40;99.90;;;;;;5069661;28;20044;-81
2023/09/17 08:06:56;;;;;;;24.15;21.35;;;18.40;99.90;;;;;;5074680;28;20523;-81
2023/09/17 08:09:22;;;;;;;27.80;22.10;;;18.50;99.90;;;;;;5063479;28;20040;-81
2023/09/17 08:11:49;;;;;;;27.45;21.92;;;18.50;99.90;;;;;;5063398;28;20040;-81
2023/09/17 08:14:15;;;;;;;27.25;22.80;;;18.50;99.90;;;;;;5064415;28;20032;-81
2023/09/17 08:16:41;;;;;;;30.50;24.80;;;18.60;99.90;;;;;;5060717;28;20135;-81
2023/09/17 08:19:06;;;;;;;33.92;25.55;;;18.50;99.90;;;;;;5058325;28;20150;-81
2023/09/17 08:21:33;;;;;;;31.42;24.83;;;18.60;99.90;;;;;;5061074;28;20046;-81
2023/09/17 08:23:59;;;;;;;29.42;23.45;;;18.70;99.90;;;;;;5060393;28;20067;-81
2023/09/17 08:26:28;;;;;;;31.80;25.10;;;18.80;99.90;;;;;;5056100;28;20063;-81
2023/09/17 08:28:56;;;;;;;27.98;23.70;;;18.60;99.90;;;;;;5064428;28;20036;-81
2023/09/17 08:31:24;;;;;;;28.98;22.73;;;18.80;99.90;;;;;;5061379;28;20043;-81
2023/09/17 08:33:53;;;;;;;29.55;22.13;;;18.70;99.90;;;;;;5059521;28;20162;-81
2023/09/17 08:36:21;;;;;;;28.08;22.55;;;18.60;99.90;;;;;;5073731;28;20455;-81
2023/09/17 08:38:50;;;;;;;28.10;22.80;;;18.30;99.90;;;;;;5055150;28;20055;-81
2023/09/17 08:41:19;;;;;;;29.73;22.75;;;18.50;99.90;;;;;;5063090;28;20052;-81
2023/09/17 08:43:46;;;;;;;25.23;21.30;;;18.50;99.90;;;;;;5057978;28;20437;-81
2023/09/17 08:46:12;;;;;;;28.85;21.83;;;18.70;99.90;;;;;;5061844;28;20047;-81
2023/09/17 08:48:38;;;;;;;27.38;21.88;;;18.70;99.90;;;;;;5057739;28;20123;-81
2023/09/17 08:51:05;;;;;;;28.30;20.75;;;18.70;99.90;;;;;;5061736;28;20074;-81
2023/09/17 08:53:39;;;;;;;26.98;21.23;;;18.80;99.90;;;;;;5057245;28;20068;-82
2023/09/17 08:56:06;;;;;;;26.53;20.30;;;18.80;99.90;;;;;;5077164;28;20334;-81
2023/09/17 08:58:40;;;;;;;23.23;19.55;;;18.80;99.90;;;;;;5057726;28;20047;-81
2023/09/17 09:01:09;;;;;;;25.20;19.35;;;19.00;99.90;;;;;;5059341;28;20109;-81
2023/09/17 09:03:35;;;;;;;23.77;19.23;;;19.10;99.90;;;;;;5069895;28;20092;-82
2023/09/17 09:06:03;;;;;;;22.25;18.25;;;19.20;99.90;;;;;;5057845;28;20477;-81
2023/09/17 09:08:30;;;;;;;23.00;18.17;;;19.30;99.90;;;;;;5073018;28;20048;-81
2023/09/17 09:10:56;;;;;;;24.98;19.05;;;19.20;99.90;;;;;;5073864;28;20047;-81
2023/09/17 09:13:22;;;;;;;22.60;17.63;;;19.30;99.90;;;;;;5052530;28;20032;-82
2023/09/17 09:15:48;;;;;;;24.40;18.35;;;19.20;99.90;;;;;;5066963;28;20489;-82
2023/09/17 09:18:14;;;;;;;25.55;18.30;;;19.10;99.90;;;;;;5054440;28;20062;-82
2023/09/17 09:20:41;;;;;;;22.40;17.48;;;18.90;99.90;;;;;;5068055;28;20044;-81
2023/09/17 09:23:07;;;;;;;22.52;17.70;;;19.10;99.90;;;;;;5072048;28;20044;-81
2023/09/17 09:25:34;;;;;;;21.85;16.58;;;18.90;99.90;;;;;;5055694;28;20457;-81
2023/09/17 09:28:03;;;;;;;22.48;18.15;;;18.90;99.90;;;;;;5058903;28;20036;-82
2023/09/17 09:30:29;;;;;;;20.25;16.92;;;19.00;99.90;;;;;;5071383;28;20181;-81
2023/09/17 09:32:56;;;;;;;23.58;17.38;;;19.10;99.90;;;;;;5068214;28;20115;-81
2023/09/17 09:35:22;;;;;;;20.80;17.45;;;19.10;99.90;;;;;;5062049;28;20530;-81
2023/09/17 09:37:48;;;;;;;24.02;16.92;;;19.00;99.90;;;;;;5055095;28;20068;-82
2023/09/17 09:40:17;;;;;;;17.83;15.00;;;19.00;99.90;;;;;;5057445;28;20071;-83
2023/09/17 09:42:43;;;;;;;18.95;15.95;;;19.20;99.90;;;;;;5069507;28;20044;-85
2023/09/17 09:45:15;;;;;;;18.55;15.60;;;19.30;99.90;;;;;;5072059;28;20048;-84
2023/09/17 09:47:51;;;;;;;18.20;15.05;;;19.30;99.90;;;;;;5050985;28;20561;-84
2023/09/17 09:50:32;;;;;;;21.55;15.30;;;19.50;99.90;;;;;;5055427;28;20195;-85
2023/09/17 09:52:59;;;;;;;20.50;15.75;;;19.60;99.90;;;;;;5075354;28;20038;-83
2023/09/17 09:55:27;;;;;;;16.42;13.85;;;19.80;99.90;;;;;;5055327;28;20148;-85
2023/09/17 09:57:53;;;;;;;17.65;13.85;;;19.60;99.90;;;;;;5064443;28;20149;-85
2023/09/17 10:00:29;;;;;;;17.02;13.75;;;19.70;99.90;;;;;;5051681;28;20062;-85
2023/09/17 10:02:55;;;;;;;16.05;12.93;;;19.60;99.90;;;;;;5066760;28;20524;-83
2023/09/17 10:05:37;;;;;;;16.13;13.32;;;19.70;99.90;;;;;;5055865;28;20044;-85
2023/09/17 10:08:04;;;;;;;14.70;12.80;;;19.60;99.90;;;;;;5057254;28;20062;-83
2023/09/17 10:10:30;;;;;;;15.88;13.40;;;19.60;99.90;;;;;;5053709;28;20033;-83
2023/09/17 10:12:56;;;;;;;16.88;12.43;;;19.50;99.90;;;;;;5062369;28;20040;-85
2023/09/17 10:15:22;;;;;;;14.88;11.88;;;19.60;99.90;;;;;;5064751;28;20035;-84
2023/09/17 10:17:49;;;;;;;13.98;11.63;;;19.80;99.90;;;;;;5055772;28;20044;-84
2023/09/17 10:20:18;;;;;;;17.35;13.35;;;20.00;99.90;;;;;;5067454;28;20082;-83
2023/09/17 10:22:46;;;;;;;17.33;14.52;;;20.00;99.90;;;;;;5059832;28;20035;-84
2023/09/17 10:25:14;;;;;;;15.90;13.38;;;20.00;99.90;;;;;;5069412;28;20463;-84
2023/09/17 10:27:43;;;;;;;16.30;12.82;;;20.20;99.90;;;;;;5066473;28;20849;-84
2023/09/17 10:30:12;;;;;;;15.15;12.65;;;20.00;99.90;;;;;;5070312;28;20044;-84
2023/09/17 10:32:38;;;;;;;17.90;13.23;;;20.10;99.90;;;;;;5055324;28;20032;-84
2023/09/17 10:35:06;;;;;;;16.88;13.57;;;20.30;99.90;;;;;;5066722;28;20546;-84
2023/09/17 10:37:35;;;;;;;17.25;13.25;;;20.20;99.90;;;;;;5054502;28;20396;-84
2023/09/17 10:40:02;;;;;;;15.73;12.52;;;20.30;99.90;;;;;;5053338;28;20162;-86
2023/09/17 10:42:30;;;;;;;17.27;13.07;;;20.40;99.90;;;;;;5053256;28;20032;-86
2023/09/17 10:44:57;;;;;;;16.35;13.43;;;20.20;99.90;;;;;;5055925;28;20519;-86
2023/09/17 10:47:24;;;;;;;17.02;14.98;;;20.10;99.90;;;;;;5060295;28;20067;-87
2023/09/17 10:49:51;;;;;;;18.73;14.55;;;19.90;99.90;;;;;;5071703;28;20106;-87
2023/09/17 10:52:17;;;;;;;15.77;13.07;;;19.90;99.90;;;;;;5057122;28;20238;-84
2023/09/17 10:54:44;;;;;;;16.23;13.60;;;19.80;99.90;;;;;;5057472;28;20044;-83
2023/09/17 10:57:33;;;;;;;16.65;14.15;;;19.80;99.90;;;;;;5059903;28;20086;-83
2023/09/17 11:00:01;;;;;;;16.33;13.13;;;19.90;99.90;;;;;;5072468;28;20031;-83
2023/09/17 11:02:28;;;;;;;17.48;14.73;;;20.10;99.90;;;;;;5069450;28;20147;-84
2023/09/17 11:04:55;;;;;;;18.13;15.07;;;20.20;99.90;;;;;;5072843;28;20139;-82
2023/09/17 11:07:21;;;;;;;17.17;14.50;;;20.40;99.90;;;;;;5059472;28;20129;-83
2023/09/17 11:09:48;;;;;;;19.35;15.30;;;20.60;99.90;;;;;;5054488;28;20508;-83
2023/09/17 11:12:14;;;;;;;19.38;14.80;;;21.00;99.90;;;;;;5058103;28;20059;-84
2023/09/17 11:14:43;;;;;;;18.58;15.27;;;21.20;99.90;;;;;;5068876;28;20193;-82
2023/09/17 11:17:09;;;;;;;20.35;15.20;;;21.30;99.90;;;;;;5069350;28;20155;-83
2023/09/17 11:19:34;;;;;;;20.58;15.13;;;21.50;99.90;;;;;;5055986;28;20116;-83
2023/09/17 11:22:04;;;;;;;18.60;14.55;;;22.00;99.90;;;;;;5059797;28;20047;-83
2023/09/17 11:24:31;;;;;;;16.90;13.85;;;21.90;99.90;;;;;;5068235;28;20040;-83
2023/09/17 11:27:01;;;;;;;20.77;14.88;;;22.10;99.90;;;;;;5048816;28;20163;-83
2023/09/17 11:29:44;;;;;;;16.00;13.68;;;21.80;99.90;;;;;;5059104;28;20040;-83
2023/09/17 11:32:11;;;;;;;18.15;14.50;;;21.30;99.90;;;;;;5060616;28;20035;-85
2023/09/17 11:34:39;;;;;;;15.55;13.40;;;21.20;99.90;;;;;;5070543;28;20044;-83
2023/09/17 11:37:05;;;;;;;21.40;13.88;;;21.00;99.90;;;;;;5058675;28;20730;-83
2023/09/17 11:39:35;;;;;;;15.55;12.73;;;20.90;99.90;;;;;;5071395;28;20074;-84
2023/09/17 11:42:03;;;;;;;16.80;13.25;;;20.80;99.90;;;;;;5071065;28;20051;-84
2023/09/17 11:44:32;;;;;;;13.85;12.18;;;20.90;99.90;;;;;;5060216;28;20052;-85
2023/09/17 11:46:58;;;;;;;16.98;12.93;;;21.10;99.90;;;;;;5098928;27;20058;-83
2023/09/17 11:49:24;;;;;;;19.90;14.00;;;21.30;99.90;;;;;;5080287;28;20043;-85
2023/09/17 11:51:50;;;;;;;19.10;14.18;;;21.50;99.90;;;;;;5075337;28;20714;-85
2023/09/17 11:54:18;;;;;;;17.17;13.50;;;22.20;99.90;;;;;;5090957;28;20165;-84
2023/09/17 11:56:53;;;;;;;21.13;14.60;;;23.00;99.90;;;;;;5086557;28;20043;-84
2023/09/17 11:59:21;;;;;;;17.27;12.77;;;23.30;99.90;;;;;;5106206;27;20587;-84
2023/09/17 12:01:57;;;;;;;15.07;12.15;;;23.20;99.90;;;;;;5090107;28;20044;-83
2023/09/17 12:04:25;;;;;;;14.95;11.90;;;23.70;99.90;;;;;;5087521;28;20174;-84
2023/09/17 12:06:52;;;;;;;14.63;11.70;;;24.00;99.90;;;;;;5090185;28;20069;-85
2023/09/17 12:09:40;;;;;;;14.73;12.27;;;24.50;99.90;;;;;;5089921;28;20044;-85
2023/09/17 12:12:06;;;;;;;16.63;13.00;;;24.10;99.90;;;;;;5077119;28;20388;-85
2023/09/17 12:14:36;;;;;;;14.43;12.30;;;24.00;99.90;;;;;;5091647;28;20543;-85
2023/09/17 12:17:02;;;;;;;15.57;11.93;;;24.80;99.90;;;;;;5074138;28;20043;-86
2023/09/17 12:19:28;;;;;;;12.60;10.88;;;24.70;99.90;;;;;;5076612;28;20477;-85
2023/09/17 12:21:56;;;;;;;14.02;10.20;;;24.30;99.90;;;;;;5073813;28;20089;-85
2023/09/17 12:24:35;;;;;;;15.45;10.23;;;23.80;99.90;;;;;;5093784;28;20045;-83
2023/09/17 12:29:34;;;;;;;14.55;9.38;;;23.60;99.90;;;;;;5091101;28;20132;-83